South Killingly, Connecticut
Current Conditions -  °F | °C
As of 9:52 PM on Sunday 21 Dec 2014 (Local Time) from KIJD Reporting Station
Overcast Overcast  
Wind Chill: 33°   Ceiling: 4800
Heat Index: 33°   Visibility: 10mi
Dew Point: 30°   Wind: 3mph
Humidity: 89%   Direction: 10°N
Pressure: 30.35"   Gusts: NA
Location:  41.7938°N, 71.8615°W
Report Text: KIJD 220252Z AUTO 01003KT 10SM SCT020 SCT030 OVC048 01/M01 A3035 RMK AO2 SNB0153E19 SLP278 P0000 60000 T00061011 53005
Loading
Personal Weather Stations






























Interactive Weather Map New forecast layout! Learn more

10-Day Weather Forecast

Advertisements
Track Severe Weather on mobile